Terminal Aerodrome Forecast
Issued by NWS Atlanta, GA

Home | Current Version | Previous Version | Text Only | Print | Product List | Glossary On
Versions: 1 2 3 4 5 6 7 8 9 10 11 12 13 14 15 16 17 18 19 20 21 22 23 24 25 26 27 28 29 30 31 32 33 34 35 36 37
000
FTUS42 KFFC 161127
TAFATL
TAF
KATL 161127Z 1612/1718 24010G18KT P6SM BKN014 OVC040
     FM161400 25014G24KT P6SM BKN017 OVC040
     FM161800 26015G25KT P6SM VCSH BKN025 OVC050
     FM170000 33009KT P6SM VCSH SCT025 BKN045
     FM170300 34006KT P6SM SCT030 BKN050
     FM170900 02006KT P6SM BKN018 OVC040
     FM171400 09008KT 6SM -RA BKN015 OVC030=

USA.gov is the U.S. government's official web portal to all federal, state and local government web resources and services.